Time;durP1;ratioP1;P1;durP2;ratioP2;P2;SDS_P1;SDS_P2;PMS_P1;PMS_P2;Temp;Humidity;BMP_temperature;BMP_pressure;BME280_temperature;BME280_humidity;BME280_pressure;Samples;Min_cycle;Max_cycle;Signal;HPM_P1;HPM_P2
2023/06/29 00:01:48;;;;;;;;;;;;;;;24.21;66.70;100837.56;7400972;19;2216;-54
2023/06/29 00:04:18;;;;;;;;;;;;;;;24.28;66.41;100828.78;7399367;19;1426;-54
2023/06/29 00:06:49;;;;;;;;;;;;;;;24.20;66.75;100846.69;7401210;19;1374;-54
2023/06/29 00:09:19;;;;;;;;;;;;;;;24.21;66.70;100842.97;7400330;19;1418;-54
2023/06/29 00:11:47;;;;;;;;;;;;;;;24.21;66.82;100837.56;7400566;19;1675;-54
2023/06/29 00:14:15;;;;;;;;;;;;;;;24.21;66.48;100856.50;7398886;19;1841;-54
2023/06/29 00:16:44;;;;;;;;;;;;;;;24.19;66.49;100842.31;7401617;19;1414;-54
2023/06/29 00:19:14;;;;;;;;;;;;;;;24.17;66.49;100847.03;7400776;19;1820;-54
2023/06/29 00:21:42;;;;;;;;;;;;;;;24.19;66.56;100818.00;7401867;19;1017;-54
2023/06/29 00:24:13;;;;;;;;;;;;;;;24.22;66.30;100831.13;7399538;19;1481;-54
2023/06/29 00:26:41;;;;;;;;;;;;;;;24.17;66.76;100825.41;7399787;19;1734;-54
2023/06/29 00:29:10;;;;;;;;;;;;;;;24.22;66.53;100839.25;7397781;19;1123;-54
2023/06/29 00:31:38;;;;;;;;;;;;;;;24.22;66.51;100805.97;7400037;19;1919;-55
2023/06/29 00:34:06;;;;;;;;;;;;;;;24.22;66.54;100798.72;7399518;19;1857;-54
2023/06/29 00:36:35;;;;;;;;;;;;;;;24.25;66.32;100821.00;7400575;19;1749;-54
2023/06/29 00:39:03;;;;;;;;;;;;;;;24.24;66.49;100805.81;7399137;19;1672;-54
2023/06/29 00:41:34;;;;;;;;;;;;;;;24.23;66.66;100810.34;7398464;19;1552;-54
2023/06/29 00:44:02;;;;;;;;;;;;;;;24.17;66.34;100798.41;7399558;19;1735;-54
2023/06/29 00:46:31;;;;;;;;;;;;;;;24.20;66.55;100803.44;7400698;19;1453;-54
2023/06/29 00:48:59;;;;;;;;;;;;;;;24.21;66.28;100804.28;7399700;19;1398;-54
2023/06/29 00:51:29;;;;;;;;;;;;;;;24.17;66.56;100798.41;7401338;19;991;-54
2023/06/29 00:53:58;;;;;;;;;;;;;;;24.16;66.70;100791.28;7397496;19;1849;-54
2023/06/29 00:56:27;;;;;;;;;;;;;;;24.21;66.55;100807.84;7399603;19;1098;-54
2023/06/29 00:58:58;;;;;;;;;;;;;;;24.21;66.50;100793.47;7400348;19;1298;-54
2023/06/29 01:01:27;;;;;;;;;;;;;;;24.16;66.65;100794.00;7398698;19;1827;-54
2023/06/29 01:03:57;;;;;;;;;;;;;;;24.18;66.76;100788.41;7396936;19;1844;-54
2023/06/29 01:06:30;;;;;;;;;;;;;;;24.24;66.69;100808.53;7398457;19;1790;-54
2023/06/29 01:09:01;;;;;;;;;;;;;;;24.17;66.56;100798.41;7398393;19;1842;-55
2023/06/29 01:11:29;;;;;;;;;;;;;;;24.21;66.32;100824.06;7398687;19;1821;-54
2023/06/29 01:14:02;;;;;;;;;;;;;;;24.18;66.63;100813.59;7399230;19;1859;-54
2023/06/29 01:16:32;;;;;;;;;;;;;;;24.17;66.48;100820.00;7399596;19;1797;-54
2023/06/29 01:19:01;;;;;;;;;;;;;;;24.20;66.73;100813.41;7399194;19;1426;-54
2023/06/29 01:21:31;;;;;;;;;;;;;;;24.16;66.50;100818.31;7401046;19;1041;-54
2023/06/29 01:24:01;;;;;;;;;;;;;;;24.18;66.67;100807.34;7397616;19;1912;-54
2023/06/29 01:26:32;;;;;;;;;;;;;;;24.21;66.58;100806.97;7398261;19;1707;-54
2023/06/29 01:29:01;;;;;;;;;;;;;;;24.18;66.64;100800.06;7398386;19;1050;-54
2023/06/29 01:31:29;;;;;;;;;;;;;;;24.15;66.63;100799.56;7398064;19;1952;-54
2023/06/29 01:33:57;;;;;;;;;;;;;;;24.17;66.62;100798.41;7397680;19;1847;-54
2023/06/29 01:36:29;;;;;;;;;;;;;;;24.18;66.46;100802.78;7397380;19;1473;-54
2023/06/29 01:39:02;;;;;;;;;;;;;;;24.15;66.54;100795.03;7396633;19;1406;-54
2023/06/29 01:41:35;;;;;;;;;;;;;;;24.21;66.23;100805.16;7397424;19;1759;-54
2023/06/29 01:44:05;;;;;;;;;;;;;;;24.16;66.29;100812.91;7399247;19;1809;-54
2023/06/29 01:46:35;;;;;;;;;;;;;;;24.22;66.24;100812.22;7398688;19;1743;-54
2023/06/29 01:49:03;;;;;;;;;;;;;;;24.21;66.28;100815.09;7397754;19;1834;-54
2023/06/29 01:51:32;;;;;;;;;;;;;;;24.17;66.28;100798.41;7399801;19;961;-54
2023/06/29 01:54:00;;;;;;;;;;;;;;;24.15;66.36;100788.75;7396285;19;1857;-54
2023/06/29 01:56:28;;;;;;;;;;;;;;;24.15;66.65;100800.44;7397240;19;1723;-54
2023/06/29 01:59:01;;;;;;;;;;;;;;;24.19;66.49;100784.69;7399316;19;1015;-54
2023/06/29 02:01:29;;;;;;;;;;;;;;;24.21;66.41;100777.25;7398110;19;1431;-54
2023/06/29 02:03:58;;;;;;;;;;;;;;;24.18;66.50;100777.63;7396484;19;1931;-54
2023/06/29 02:06:26;;;;;;;;;;;;;;;24.21;66.31;100780.84;7396864;19;1522;-54
2023/06/29 02:08:54;;;;;;;;;;;;;;;24.17;66.22;100778.63;7397274;19;1405;-54
2023/06/29 02:11:23;;;;;;;;;;;;;;;24.18;66.56;100789.25;7397534;19;1770;-54
2023/06/29 02:13:51;;;;;;;;;;;;;;;24.17;66.42;100784.03;7396977;19;1843;-54
2023/06/29 02:16:22;;;;;;;;;;;;;;;24.18;66.24;100794.66;7396129;19;1418;-54
2023/06/29 02:18:50;;;;;;;;;;;;;;;24.19;66.62;100792.78;7394412;19;1391;-54
2023/06/29 02:21:19;;;;;;;;;;;;;;;24.15;66.40;100784.22;7395150;19;1383;-54
2023/06/29 02:23:48;;;;;;;;;;;;;;;24.17;66.43;100803.81;7397724;19;1663;-54
2023/06/29 02:26:16;;;;;;;;;;;;;;;24.19;66.49;100796.38;7398148;19;1059;-54
2023/06/29 02:28:44;;;;;;;;;;;;;;;24.21;66.40;100801.56;7394808;19;1912;-54
2023/06/29 02:31:13;;;;;;;;;;;;;;;24.18;66.61;100805.47;7396650;19;1033;-54
2023/06/29 02:33:44;;;;;;;;;;;;;;;24.17;66.33;100793.00;7396777;19;1845;-54
2023/06/29 02:36:12;;;;;;;;;;;;;;;24.20;66.50;100800.75;7396989;19;1514;-54
2023/06/29 02:38:41;;;;;;;;;;;;;;;24.15;66.39;100811.22;7394357;19;1612;-54
2023/06/29 02:41:09;;;;;;;;;;;;;;;24.16;66.53;100812.06;7396535;19;2103;-54
2023/06/29 02:43:37;;;;;;;;;;;;;;;24.16;66.44;100795.84;7396412;19;1817;-54
2023/06/29 02:46:06;;;;;;;;;;;;;;;24.13;66.39;100810.56;7396115;19;1794;-54
2023/06/29 02:48:34;;;;;;;;;;;;;;;24.16;66.29;100806.66;7396850;19;1829;-54
2023/06/29 02:51:05;;;;;;;;;;;;;;;24.17;66.54;100806.50;7397639;19;1041;-54
2023/06/29 02:53:33;;;;;;;;;;;;;;;24.16;66.19;100802.09;7394915;19;1520;-54
2023/06/29 02:56:01;;;;;;;;;;;;;;;24.19;66.42;100807.19;7395305;19;1897;-54
2023/06/29 02:58:30;;;;;;;;;;;;;;;24.16;66.18;100791.28;7397535;19;1033;-54
2023/06/29 03:00:58;;;;;;;;;;;;;;;24.18;66.29;100813.59;7394894;19;1444;-54
2023/06/29 03:03:26;;;;;;;;;;;;;;;24.16;66.52;100799.41;7395223;19;1690;-54
2023/06/29 03:05:55;;;;;;;;;;;;;;;24.24;66.07;100803.97;7395249;19;1415;-54
2023/06/29 03:08:26;;;;;;;;;;;;;;;24.16;66.52;100807.50;7395036;19;1727;-54
2023/06/29 03:10:54;;;;;;;;;;;;;;;24.17;66.50;100811.91;7394031;19;1659;-54
2023/06/29 03:13:22;;;;;;;;;;;;;;;24.13;66.37;100799.75;7395988;19;1731;-54
2023/06/29 03:15:50;;;;;;;;;;;;;;;24.19;66.27;100798.19;7393913;19;1849;-54
2023/06/29 03:18:19;;;;;;;;;;;;;;;24.20;66.08;100797.19;7396532;19;1466;-54
2023/06/29 03:20:47;;;;;;;;;;;;;;;24.20;66.36;100805.31;7396160;19;1239;-54
2023/06/29 03:23:15;;;;;;;;;;;;;;;24.22;66.23;100801.41;7392737;19;1473;-54
2023/06/29 03:25:46;;;;;;;;;;;;;;;24.17;66.25;100790.28;7394864;19;1707;-54
2023/06/29 03:28:15;;;;;;;;;;;;;;;24.18;66.23;100801.94;7397145;19;1017;-54
2023/06/29 03:30:43;;;;;;;;;;;;;;;24.15;66.34;100805.81;7394916;19;1768;-54
2023/06/29 03:33:12;;;;;;;;;;;;;;;24.15;66.49;100808.53;7402467;19;1781;-54
2023/06/29 03:35:40;;;;;;;;;;;;;;;24.09;66.36;100806.47;7400240;19;1838;-54
2023/06/29 03:38:09;;;;;;;;;;;;;;;24.13;66.55;100820.50;7402610;19;1335;-54
2023/06/29 03:40:38;;;;;;;;;;;;;;;24.12;66.24;100822.34;7402639;19;1105;-54
2023/06/29 03:43:09;;;;;;;;;;;;;;;24.18;66.22;100828.97;7403181;19;1045;-54
2023/06/29 03:45:37;;;;;;;;;;;;;;;24.11;66.34;100815.25;7402698;19;1525;-54
2023/06/29 03:48:05;;;;;;;;;;;;;;;24.10;66.49;100832.50;7402242;19;2081;-54
2023/06/29 03:50:34;;;;;;;;;;;;;;;24.16;66.24;100818.31;7402110;19;1795;-54
2023/06/29 03:53:02;;;;;;;;;;;;;;;24.13;66.44;100824.06;7402199;19;1429;-54
2023/06/29 03:55:30;;;;;;;;;;;;;;;24.04;66.41;100835.88;7402043;19;1849;-54
2023/06/29 03:57:59;;;;;;;;;;;;;;;24.06;66.82;100836.53;7400349;19;1979;-54
2023/06/29 04:00:30;;;;;;;;;;;;;;;23.89;66.99;100843.75;7398846;19;1700;-54
2023/06/29 04:02:58;;;;;;;;;;;;;;;23.87;67.06;100839.53;7398512;19;1438;-54
2023/06/29 04:05:27;;;;;;;;;;;;;;;23.86;67.16;100833.31;7399103;19;1840;-54
2023/06/29 04:07:55;;;;;;;;;;;;;;;23.82;67.06;100827.38;7399726;19;1032;-54
2023/06/29 04:10:23;;;;;;;;;;;;;;;23.89;67.16;100821.31;7401235;19;1881;-54
2023/06/29 04:12:52;;;;;;;;;;;;;;;23.89;67.28;100832.97;7401589;19;1952;-54
2023/06/29 04:15:20;;;;;;;;;;;;;;;23.93;67.02;100828.91;7399909;19;2009;-54
2023/06/29 04:17:51;;;;;;;;;;;;;;;23.95;66.97;100828.75;7401452;19;1774;-54
2023/06/29 04:20:19;;;;;;;;;;;;;;;23.87;67.22;100823.34;7400508;19;1382;-54
2023/06/29 04:22:47;;;;;;;;;;;;;;;23.91;66.70;100833.63;7400307;19;1747;-54
2023/06/29 04:25:16;;;;;;;;;;;;;;;23.94;66.97;100841.41;7402214;19;949;-54
2023/06/29 04:27:44;;;;;;;;;;;;;;;23.99;66.64;100838.22;7400985;19;1877;-54
2023/06/29 04:30:17;;;;;;;;;;;;;;;23.92;66.94;100837.22;7400719;19;1455;-54
2023/06/29 04:32:45;;;;;;;;;;;;;;;23.95;66.73;100834.16;7399028;19;1825;-54
2023/06/29 04:35:16;;;;;;;;;;;;;;;23.97;66.58;100843.81;7396623;19;1845;-54
2023/06/29 04:37:45;;;;;;;;;;;;;;;23.98;66.68;100839.25;7399246;19;1802;-54
2023/06/29 04:40:14;;;;;;;;;;;;;;;23.96;66.68;100835.84;7398895;19;1453;-54
2023/06/29 04:42:47;;;;;;;;;;;;;;;23.98;66.65;100842.78;7398888;19;1727;-54
2023/06/29 04:45:17;;;;;;;;;;;;;;;23.96;66.94;100841.25;7400788;19;1667;-54
2023/06/29 04:47:45;;;;;;;;;;;;;;;23.95;66.84;100850.34;7400075;19;1735;-54
2023/06/29 04:50:14;;;;;;;;;;;;;;;23.98;66.73;100841.94;7399991;19;1382;-54
2023/06/29 04:52:45;;;;;;;;;;;;;;;24.01;66.58;100855.09;7399974;19;1398;-54
2023/06/29 04:55:13;;;;;;;;;;;;;;;23.98;66.54;100844.63;7400444;19;1849;-54
2023/06/29 04:57:41;;;;;;;;;;;;;;;23.96;66.79;100858.31;7399764;19;1528;-54
2023/06/29 05:00:11;;;;;;;;;;;;;;;24.02;66.43;100848.69;7395621;19;1620;-54
2023/06/29 05:02:39;;;;;;;;;;;;;;;23.94;66.88;100852.22;7399600;19;1013;-54
2023/06/29 05:05:07;;;;;;;;;;;;;;;23.93;66.91;100841.56;7399126;19;1064;-54
2023/06/29 05:07:37;;;;;;;;;;;;;;;23.96;66.48;100844.81;7399536;19;1885;-54
2023/06/29 05:10:09;;;;;;;;;;;;;;;23.86;66.96;100838.72;7398893;19;1980;-54
2023/06/29 05:12:37;;;;;;;;;;;;;;;23.89;66.85;100854.56;7398599;19;1870;-54
2023/06/29 05:15:06;;;;;;;;;;;;;;;23.90;66.65;100842.78;7399070;19;1843;-54
2023/06/29 05:17:34;;;;;;;;;;;;;;;23.88;66.84;100849.34;7398951;19;1334;-54
2023/06/29 05:20:03;;;;;;;;;;;;;;;23.88;66.79;100852.06;7398569;19;1751;-54
2023/06/29 05:22:31;;;;;;;;;;;;;;;23.87;66.82;100851.19;7398883;19;950;-54
2023/06/29 05:25:00;;;;;;;;;;;;;;;23.85;66.80;100861.31;7399518;19;1508;-54
2023/06/29 05:27:31;;;;;;;;;;;;;;;23.86;67.08;100864.88;7398587;19;1588;-54
2023/06/29 05:29:59;;;;;;;;;;;;;;;23.95;67.02;100880.06;7395547;19;1017;-54
2023/06/29 05:32:27;;;;;;;;;;;;;;;23.87;67.10;100863.84;7399234;19;1117;-54
2023/06/29 05:34:56;;;;;;;;;;;;;;;23.90;66.84;100871.63;7398189;19;1838;-54
2023/06/29 05:37:24;;;;;;;;;;;;;;;23.89;67.10;100868.06;7398494;19;1885;-54
2023/06/29 05:39:54;;;;;;;;;;;;;;;23.89;66.80;100872.63;7398163;19;1864;-54
2023/06/29 05:42:22;;;;;;;;;;;;;;;23.88;66.82;100873.66;7397828;19;1833;-54
2023/06/29 05:44:55;;;;;;;;;;;;;;;23.90;67.06;100882.44;7397846;19;1766;-54
2023/06/29 05:47:23;;;;;;;;;;;;;;;23.88;67.00;100870.97;7397421;19;1398;-54
2023/06/29 05:49:52;;;;;;;;;;;;;;;23.89;66.93;100872.63;7396964;19;1797;-54
2023/06/29 05:52:21;;;;;;;;;;;;;;;23.94;66.91;100883.81;7396957;19;1035;-54
2023/06/29 05:54:49;;;;;;;;;;;;;;;23.89;66.99;100878.03;7395362;19;1842;-54
2023/06/29 05:57:18;;;;;;;;;;;;;;;23.86;66.99;100875.69;7393863;19;1953;-54
2023/06/29 05:59:46;;;;;;;;;;;;;;;23.94;66.62;100878.41;7397892;19;1351;-54
2023/06/29 06:02:17;;;;;;;;;;;;;;;23.93;67.12;100893.72;7396148;19;1465;-54
2023/06/29 06:04:46;;;;;;;;;;;;;;;23.83;66.95;100879.53;7395785;19;1461;-54
2023/06/29 06:07:16;;;;;;;;;;;;;;;23.85;66.98;100873.97;7398520;19;1802;-55
2023/06/29 06:09:44;;;;;;;;;;;;;;;23.89;67.09;100881.56;7399112;19;1078;-54
2023/06/29 06:12:13;;;;;;;;;;;;;;;23.87;66.87;100877.34;7397627;19;1596;-54
2023/06/29 06:14:41;;;;;;;;;;;;;;;23.88;66.98;100895.25;7397721;19;1925;-54
2023/06/29 06:17:09;;;;;;;;;;;;;;;23.89;66.96;100892.38;7395621;19;1859;-54
2023/06/29 06:19:40;;;;;;;;;;;;;;;23.89;67.03;100905.03;7397494;19;1822;-54
2023/06/29 06:22:09;;;;;;;;;;;;;;;23.87;67.08;100882.75;7397165;19;1434;-54
2023/06/29 06:24:37;;;;;;;;;;;;;;;23.88;67.04;100897.97;7397050;19;1481;-54
2023/06/29 06:27:07;;;;;;;;;;;;;;;23.88;66.86;100889.88;7397326;19;1021;-54
2023/06/29 06:29:35;;;;;;;;;;;;;;;23.85;67.09;100877.50;7396663;19;1865;-54
2023/06/29 06:32:03;;;;;;;;;;;;;;;23.93;66.68;100879.41;7397797;19;1410;-54
2023/06/29 06:34:32;;;;;;;;;;;;;;;23.89;66.89;100897.78;7397346;19;1714;-54
2023/06/29 06:37:03;;;;;;;;;;;;;;;23.91;66.97;100892.22;7395374;19;1846;-54
2023/06/29 06:39:32;;;;;;;;;;;;;;;23.85;67.16;100871.28;7397046;19;1461;-54
2023/06/29 06:42:00;;;;;;;;;;;;;;;23.83;67.19;100882.25;7396405;19;1420;-54
2023/06/29 06:44:29;;;;;;;;;;;;;;;23.83;67.01;100876.84;7397851;19;1041;-54
2023/06/29 06:46:57;;;;;;;;;;;;;;;23.85;66.93;100888.31;7396755;19;1814;-54
2023/06/29 06:49:26;;;;;;;;;;;;;;;23.86;67.13;100881.09;7396736;19;1596;-53
2023/06/29 06:51:54;;;;;;;;;;;;;;;23.87;67.10;100864.69;7397427;19;1477;-54
2023/06/29 06:54:25;;;;;;;;;;;;;;;23.84;66.86;100875.00;7396368;19;1719;-54
2023/06/29 06:56:53;;;;;;;;;;;;;;;23.86;66.96;100870.28;7395372;19;1851;-54
2023/06/29 06:59:22;;;;;;;;;;;;;;;23.86;67.19;100883.78;7397482;19;1113;-54
2023/06/29 07:01:50;;;;;;;;;;;;;;;23.81;67.01;100877.03;7395774;19;1588;-54
2023/06/29 07:04:18;;;;;;;;;;;;;;;23.85;67.05;100882.06;7394005;19;1375;-53
2023/06/29 07:06:47;;;;;;;;;;;;;;;23.87;66.96;100882.75;7402895;19;1462;-54
2023/06/29 07:09:15;;;;;;;;;;;;;;;23.86;66.99;100889.19;7402801;19;1819;-54
2023/06/29 07:11:46;;;;;;;;;;;;;;;23.86;66.99;100875.69;7403225;19;1743;-54
2023/06/29 07:14:15;;;;;;;;;;;;;;;23.83;67.04;100866.03;7402099;19;1782;-54
2023/06/29 07:16:44;;;;;;;;;;;;;;;23.84;66.91;100877.69;7401990;19;1862;-54
2023/06/29 07:19:14;;;;;;;;;;;;;;;23.84;66.97;100877.69;7403914;19;1801;-54
2023/06/29 07:21:42;;;;;;;;;;;;;;;23.82;67.13;100880.56;7403984;19;1499;-54
2023/06/29 07:24:11;;;;;;;;;;;;;;;23.80;67.18;100887.97;7402210;19;1517;-54
2023/06/29 07:26:40;;;;;;;;;;;;;;;23.85;67.12;100871.28;7402643;19;1337;-55
2023/06/29 07:29:11;;;;;;;;;;;;;;;23.79;67.11;100884.41;7404068;19;965;-55
2023/06/29 07:31:40;;;;;;;;;;;;;;;23.81;66.99;100889.66;7401617;19;1842;-54
2023/06/29 07:34:08;;;;;;;;;;;;;;;23.80;67.30;100888.81;7401978;19;1378;-55
2023/06/29 07:36:36;;;;;;;;;;;;;;;23.82;66.99;100891.38;7400424;19;1861;-54
2023/06/29 07:39:05;;;;;;;;;;;;;;;23.82;66.89;100897.59;7401918;19;1833;-54
2023/06/29 07:41:34;;;;;;;;;;;;;;;23.79;67.03;100889.81;7401142;19;1794;-55
2023/06/29 07:44:03;;;;;;;;;;;;;;;23.79;67.08;100881.72;7403667;19;1821;-54
2023/06/29 07:46:34;;;;;;;;;;;;;;;23.78;67.05;100885.44;7402451;19;1782;-54
2023/06/29 07:49:03;;;;;;;;;;;;;;;23.85;66.93;100891.03;7402551;19;1418;-54
2023/06/29 07:51:33;;;;;;;;;;;;;;;23.79;66.89;100881.72;7403629;19;1109;-54
2023/06/29 07:54:02;;;;;;;;;;;;;;;23.81;67.33;100882.44;7401252;19;1826;-54
2023/06/29 07:56:30;;;;;;;;;;;;;;;23.82;67.21;100875.16;7400254;19;1854;-54
2023/06/29 07:58:59;;;;;;;;;;;;;;;23.80;67.35;100883.41;7400283;19;1343;-54
2023/06/29 08:01:27;;;;;;;;;;;;;;;23.83;67.15;100871.44;7403660;19;1013;-54
2023/06/29 08:03:58;;;;;;;;;;;;;;;23.79;67.17;100876.31;7399974;19;1793;-54
2023/06/29 08:06:26;;;;;;;;;;;;;;;23.86;67.32;100892.72;7401569;19;1911;-54
2023/06/29 08:08:55;;;;;;;;;;;;;;;23.79;67.23;100879.00;7401838;19;1956;-54
2023/06/29 08:11:23;;;;;;;;;;;;;;;23.79;67.13;100875.47;7401472;19;1664;-55
2023/06/29 08:13:52;;;;;;;;;;;;;;;23.77;67.11;100883.72;7400445;19;1754;-54
2023/06/29 08:16:21;;;;;;;;;;;;;;;23.82;67.15;100881.41;7398343;19;1868;-54
2023/06/29 08:18:50;;;;;;;;;;;;;;;23.88;67.08;100881.75;7400590;19;1737;-54
2023/06/29 08:21:21;;;;;;;;;;;;;;;23.87;67.02;100880.06;7399996;19;1284;-54
2023/06/29 08:23:50;;;;;;;;;;;;;;;23.93;66.70;100876.69;7400749;19;1452;-54
2023/06/29 08:26:19;;;;;;;;;;;;;;;23.91;67.05;100874.16;7401418;19;1735;-54
2023/06/29 08:28:47;;;;;;;;;;;;;;;23.94;66.93;100875.69;7402177;19;1030;-54
2023/06/29 08:31:16;;;;;;;;;;;;;;;23.90;66.78;100858.13;7399716;19;1593;-54
2023/06/29 08:33:44;;;;;;;;;;;;;;;23.95;66.67;100871.97;7400013;19;1828;-54
2023/06/29 08:36:12;;;;;;;;;;;;;;;23.96;66.97;100860.16;7398737;19;1852;-54
2023/06/29 08:38:46;;;;;;;;;;;;;;;23.94;67.05;100863.03;7400882;19;1820;-54
2023/06/29 08:41:15;;;;;;;;;;;;;;;23.95;66.75;100858.47;7401518;19;1039;-54
2023/06/29 08:43:44;;;;;;;;;;;;;;;23.90;67.13;100856.28;7402487;19;994;-54
2023/06/29 08:46:12;;;;;;;;;;;;;;;23.92;66.97;100851.53;7396669;19;1771;-54
2023/06/29 08:48:44;;;;;;;;;;;;;;;23.91;66.84;100846.31;7401048;19;1651;-55
2023/06/29 08:51:13;;;;;;;;;;;;;;;23.93;67.12;100839.72;7401641;19;962;-54
2023/06/29 08:53:45;;;;;;;;;;;;;;;23.94;66.90;100841.41;7398581;19;1878;-54
2023/06/29 08:56:14;;;;;;;;;;;;;;;23.95;67.02;100831.44;7397679;19;1859;-54
2023/06/29 08:58:43;;;;;;;;;;;;;;;23.96;66.80;100847.50;7400522;19;1343;-54
2023/06/29 09:01:11;;;;;;;;;;;;;;;23.95;66.86;100843.09;7399719;19;1696;-54
2023/06/29 09:03:40;;;;;;;;;;;;;;;23.91;66.98;100838.19;7397650;19;1707;-54
2023/06/29 09:06:09;;;;;;;;;;;;;;;23.93;67.19;100828.91;7399327;19;1382;-54
2023/06/29 09:08:38;;;;;;;;;;;;;;;23.94;67.03;100829.78;7400950;19;1054;-54
2023/06/29 09:11:09;;;;;;;;;;;;;;;23.95;66.89;100837.69;7400869;19;1016;-54
2023/06/29 09:13:38;;;;;;;;;;;;;;;23.96;67.15;100835.84;7400168;19;1860;-55
2023/06/29 09:16:07;;;;;;;;;;;;;;;24.01;66.84;100830.78;7398645;19;1837;-54
2023/06/29 09:18:36;;;;;;;;;;;;;;;24.01;66.79;100825.38;7399320;19;1818;-54
2023/06/29 09:21:06;;;;;;;;;;;;;;;23.98;66.89;100833.84;7399904;19;1386;-54
2023/06/29 09:23:34;;;;;;;;;;;;;;;23.99;66.88;100822.00;7399707;19;1493;-54
2023/06/29 09:26:06;;;;;;;;;;;;;;;24.06;66.54;100817.63;7398986;19;1292;-55
2023/06/29 09:28:38;;;;;;;;;;;;;;;24.02;66.69;100813.59;7399186;19;1497;-55
2023/06/29 09:31:12;;;;;;;;;;;;;;;24.02;66.83;100806.31;7399112;19;1857;-54
2023/06/29 09:33:40;;;;;;;;;;;;;;;23.99;66.79;100822.00;7398407;19;1414;-54
2023/06/29 09:36:10;;;;;;;;;;;;;;;24.00;66.78;100812.91;7398519;19;2109;-54
2023/06/29 09:38:38;;;;;;;;;;;;;;;24.03;66.56;100812.56;7400251;19;1065;-54
2023/06/29 09:41:07;;;;;;;;;;;;;;;23.99;66.80;100808.50;7400035;19;1905;-54
2023/06/29 09:43:40;;;;;;;;;;;;;;;24.06;67.04;100806.00;7398556;19;1631;-54
2023/06/29 09:46:09;;;;;;;;;;;;;;;24.02;66.68;100808.19;7398023;19;1471;-54
2023/06/29 09:48:46;;;;;;;;;;;;;;;24.01;66.76;100803.78;7397917;19;1459;-55
2023/06/29 09:51:20;;;;;;;;;;;;;;;24.04;66.61;100806.16;7392010;19;1574;-54
2023/06/29 09:53:48;;;;;;;;;;;;;;;24.05;66.68;100805.13;7399114;19;1055;-55
2023/06/29 09:56:18;;;;;;;;;;;;;;;24.02;66.67;100790.09;7398211;19;1939;-54
2023/06/29 09:58:49;;;;;;;;;;;;;;;24.06;66.74;100814.09;7396972;19;1505;-54
2023/06/29 10:01:18;;;;;;;;;;;;;;;24.03;66.84;100796.34;7397703;19;1370;-54
2023/06/29 10:03:46;;;;;;;;;;;;;;;24.01;66.77;100793.84;7395134;19;1414;-54
2023/06/29 10:06:16;;;;;;;;;;;;;;;23.97;67.00;100789.78;7397911;19;1808;-54
2023/06/29 10:08:47;;;;;;;;;;;;;;;24.03;66.94;100780.13;7396102;19;1386;-54
2023/06/29 10:11:16;;;;;;;;;;;;;;;24.04;66.89;100787.25;7398672;19;926;-54
2023/06/29 10:13:48;;;;;;;;;;;;;;;23.99;66.92;100785.06;7398293;19;1590;-54
2023/06/29 10:16:21;;;;;;;;;;;;;;;24.02;67.04;100789.25;7397011;19;1929;-54
2023/06/29 10:18:52;;;;;;;;;;;;;;;23.97;66.93;100775.41;7397589;19;1558;-54
2023/06/29 10:21:21;;;;;;;;;;;;;;;24.01;66.72;100776.75;7397549;19;1865;-54
2023/06/29 10:23:51;;;;;;;;;;;;;;;23.99;67.13;100774.25;7397522;19;1374;-54
2023/06/29 10:26:20;;;;;;;;;;;;;;;24.00;66.88;100781.31;7396276;19;1729;-54
2023/06/29 10:28:48;;;;;;;;;;;;;;;23.99;67.18;100767.97;7396815;19;1707;-54
2023/06/29 10:31:32;;;;;;;;;;;;;;;24.00;67.06;100781.31;7398545;19;1021;-54
2023/06/29 10:34:01;;;;;;;;;;;;;;;23.98;66.94;100761.75;7398940;19;1030;-54
2023/06/29 10:36:45;;;;;;;;;;;;;;;23.99;66.98;100760.75;7396233;19;1849;-54
2023/06/29 10:39:41;;;;;;;;;;;;;;;23.99;66.86;100751.78;7398252;19;946;-54
2023/06/29 10:42:13;;;;;;;;;;;;;;;23.97;67.10;100753.81;7404523;19;1430;-54
2023/06/29 10:44:42;;;;;;;;;;;;;;;23.96;67.28;100760.22;7406503;19;1005;-54
2023/06/29 10:47:26;;;;;;;;;;;;;;;24.00;67.13;100748.06;7405221;19;1021;-54
2023/06/29 10:49:58;;;;;;;;;;;;;;;23.96;67.39;100746.72;7405057;19;955;-54
2023/06/29 10:52:27;;;;;;;;;;;;;;;23.98;67.20;100745.53;7404986;19;1596;-54
2023/06/29 10:55:10;;;;;;;;;;;;;;;23.98;67.07;100733.91;7404194;19;1862;-54
2023/06/29 10:57:38;;;;;;;;;;;;;;;24.00;67.05;100743.50;7402798;19;1856;-55
2023/06/29 11:00:07;;;;;;;;;;;;;;;23.97;67.13;100734.91;7403798;19;1851;-54
2023/06/29 11:02:38;;;;;;;;;;;;;;;23.94;67.24;100749.59;7402971;19;1596;-54
2023/06/29 11:05:07;;;;;;;;;;;;;;;23.94;67.15;100743.34;7401541;19;1779;-55
2023/06/29 11:07:35;;;;;;;;;;;;;;;23.96;67.35;100741.31;7400708;19;1785;-55
2023/06/29 11:10:04;;;;;;;;;;;;;;;23.97;67.21;100743.00;7403908;19;1739;-54
2023/06/29 11:12:32;;;;;;;;;;;;;;;23.97;66.99;100734.91;7403382;19;1825;-54
2023/06/29 11:15:00;;;;;;;;;;;;;;;23.97;67.18;100733.06;7402125;19;1555;-54
2023/06/29 11:17:29;;;;;;;;;;;;;;;23.94;67.19;100735.25;7402445;19;1860;-54
2023/06/29 11:19:59;;;;;;;;;;;;;;;23.98;67.07;100742.00;7403819;19;1809;-54
2023/06/29 11:22:30;;;;;;;;;;;;;;;23.96;67.21;100747.56;7404213;19;962;-54
2023/06/29 11:24:58;;;;;;;;;;;;;;;23.90;67.38;100720.41;7403641;19;1936;-54
2023/06/29 11:27:27;;;;;;;;;;;;;;;23.94;67.26;100732.53;7402624;19;1565;-54
2023/06/29 11:29:56;;;;;;;;;;;;;;;23.93;67.12;100725.44;7402874;19;1807;-54
2023/06/29 11:32:26;;;;;;;;;;;;;;;23.98;67.30;100725.78;7403178;19;1696;-54
2023/06/29 11:35:01;;;;;;;;;;;;;;;23.97;67.08;100737.59;7403033;19;1810;-54
2023/06/29 11:37:30;;;;;;;;;;;;;;;23.98;66.98;100732.03;7401490;19;1868;-54
2023/06/29 11:39:58;;;;;;;;;;;;;;;23.98;67.18;100717.69;7401659;19;1381;-54
2023/06/29 11:42:27;;;;;;;;;;;;;;;23.98;67.33;100723.09;7401489;19;1449;-54
2023/06/29 11:45:02;;;;;;;;;;;;;;;23.96;67.27;100715.16;7401133;19;1857;-54
2023/06/29 11:47:30;;;;;;;;;;;;;;;23.99;67.21;100713.97;7402861;19;1770;-54
2023/06/29 11:50:02;;;;;;;;;;;;;;;23.98;67.21;100725.78;7402005;19;1790;-54
2023/06/29 11:52:32;;;;;;;;;;;;;;;23.97;67.06;100715.97;7401076;19;1021;-54
2023/06/29 11:55:00;;;;;;;;;;;;;;;23.96;67.30;100693.53;7402918;19;1510;-54
2023/06/29 11:57:29;;;;;;;;;;;;;;;23.95;67.20;100712.59;7401290;19;2067;-54
2023/06/29 11:59:57;;;;;;;;;;;;;;;23.96;67.36;100692.72;7399570;19;1462;-54
2023/06/29 12:02:25;;;;;;;;;;;;;;;23.97;67.17;100688.97;7401058;19;1742;-54
2023/06/29 12:04:58;;;;;;;;;;;;;;;23.97;67.42;100694.38;7398927;19;1802;-54
2023/06/29 12:07:42;;;;;;;;;;;;;;;23.95;67.18;100691.00;7400520;19;1378;-54
2023/06/29 12:10:12;;;;;;;;;;;;;;;23.96;67.29;100703.50;7401120;19;1773;-55
2023/06/29 12:12:40;;;;;;;;;;;;;;;23.93;67.29;100698.44;7400749;19;1450;-54
2023/06/29 12:15:18;;;;;;;;;;;;;;;23.94;67.29;100694.72;7400239;19;1410;-54
2023/06/29 12:17:47;;;;;;;;;;;;;;;23.96;67.24;100692.72;7398668;19;1854;-54
2023/06/29 12:20:18;;;;;;;;;;;;;;;23.95;67.44;100701.81;7401770;19;1761;-54
2023/06/29 12:22:50;;;;;;;;;;;;;;;23.93;67.26;100707.38;7401249;19;1359;-54
2023/06/29 12:25:19;;;;;;;;;;;;;;;23.93;67.50;100687.63;7402505;19;1287;-54
2023/06/29 12:27:48;;;;;;;;;;;;;;;23.94;67.39;100675.81;7399940;19;1830;-54
2023/06/29 12:30:20;;;;;;;;;;;;;;;23.95;67.16;100682.91;7400714;19;1746;-54
2023/06/29 12:32:48;;;;;;;;;;;;;;;23.94;67.32;100678.53;7401923;19;1732;-54
2023/06/29 12:35:17;;;;;;;;;;;;;;;23.92;67.29;100667.88;7401561;19;1738;-54
2023/06/29 12:37:46;;;;;;;;;;;;;;;23.94;67.20;100673.13;7400916;19;1870;-54
2023/06/29 12:40:17;;;;;;;;;;;;;;;23.96;67.36;100684.59;7400984;19;1561;-54
2023/06/29 12:42:45;;;;;;;;;;;;;;;23.92;67.39;100664.34;7401086;19;1949;-54
2023/06/29 12:45:14;;;;;;;;;;;;;;;23.92;67.47;100673.28;7398010;19;1877;-54
2023/06/29 12:47:42;;;;;;;;;;;;;;;23.92;67.18;100672.47;7400576;19;1370;-54
2023/06/29 12:50:10;;;;;;;;;;;;;;;23.94;67.51;100675.81;7400305;19;1825;-54
2023/06/29 12:52:39;;;;;;;;;;;;;;;23.91;67.41;100663.50;7400762;19;998;-54
2023/06/29 12:55:07;;;;;;;;;;;;;;;23.94;67.46;100673.97;7401603;19;1025;-54
2023/06/29 12:57:39;;;;;;;;;;;;;;;23.94;67.19;100656.91;7396135;19;1948;-54
2023/06/29 13:00:08;;;;;;;;;;;;;;;24.02;67.36;100646.09;7401050;19;963;-54